Aérodrome :
LOGIN :

S'inscrire | Disclaimer

   EN    FR    IT 

 










Légende :    VFR   VFR Marginal   IFR   IFR Intensif   IFR Très Intensif
Visi : 
Plafond : 
>= 8 km
>= 3000ft
5 à 8 km
1000 à 3000 ft
1500m à 5 km
500 à 1000 ft
800 à 1500m
200 à 500 ft
< 800m
< 200 ft
Symboles :   Orages  Brouillard  Fortes neiges  Fortes précipitations  Vent > 20 kt
SIGMETs :   Divers  Orages  Givrage  Turbulence  Onde Orograph.  Cendres Volcan.







- Altitude de l'aérodrome : 55 ft
- Code IATA : DSA
- Voir les cartes d'approche


EGCN - Robin Hood Doncaster Sheffield

DERNIER METAR :
  • 231720Z 27017KT 9999 SCT018 14/11 Q1027

METARs EXPIRÉS :
  • 231650Z 28015G26KT 9999 BKN017 14/10 Q1027
  • 231620Z 28017KT 9999 BKN018 13/10 Q1028
  • 231550Z 29017KT 260V320 9999 BKN017 14/10 Q1027
  • 231520Z 29018G28KT 9999 SCT018 15/11 Q1027
  • 231450Z 28019G31KT CAVOK 15/10 Q1027

TAF TAF EGCN
Valide du 23 à 18h jusqu'au 24 à 18h UTC


231702Z 2318/2418 29015KT 9999 SCT030
PROB40
TEMPO 2318/2321 30020G30KT
PROB30
TEMPO 2318/2418 BKN014
Pas de NOTAMs connus pour ce terrain.
2 SIGMETs publiés pour la FIR London (EGTT) :
 
Turbulence forte
EGTT SIGMET 08 VALID 231400/231800 EGRR
EGTT LONDON FIR SEV TURB FCST WI N5400 W00200 - N5500 W00300 - N5500 E00500 - N5400 E00409 - N5400 W00200 SFC/FL060 STNR WKN=
Onde orographique forte
EGTT SIGMET 07 VALID 231400/231800 EGRR
EGTT LONDON FIR SEV MTW FCST WI N5500 E00100 - N5400 E00045 - N5400 W00245 - N5500 W00530 - N5500 E00100 FL030/220 STNR NC=



MET'MAP, la Météo Aéronautique d'un coup d'oeil ! - Copyright ORBIFLY Décembre 2007 - Disclaimer

ORBIFLY MET'MAP TEAM :

Programmation & Développement : Alexandra Zaïnal
Conception & Développement : Baudouin d'Aumeries
Co-Programmation & Développement : Marc-Olivier Méhu
Soutien technique & logistique : Manuel Goepfert

Contact : metmap@orbifly.com




SOURCES & CREDITS :

   NOAA